Terminal Aerodrome Forecast
Issued by NWS Des Moines, IA

Home | Current Version | Previous Version | Text Only | Print | Product List | Glossary On
Versions: 1 2 3 4 5 6 7 8 9 10 11 12 13 14 15 16 17 18 19 20 21 22 23 24 25 26 27 28 29 30 31 32 33 34 35 36 37 38 39 40 41 42 43 44 45 46 47 48 49
000
FTUS43 KDMX 060732 AAA
TAFDSM
TAF AMD
KDSM 060732Z 0608/0706 13008KT 4SM BR SCT006 BKN150
     FM061400 16014G21KT 6SM BR SCT015 BKN040
     FM061700 17017G25KT P6SM SCT030 BKN150
     FM070000 15014KT P6SM VCSH BKN050=

USA.gov is the U.S. government's official web portal to all federal, state and local government web resources and services.